sensor_id;sensor_type;location;lat;lon;timestamp;temperature;humidity
47540;DHT22;33280;52.152;21.052;2022-10-26T00:01:09;12.60;99.90
47540;DHT22;33280;52.152;21.052;2022-10-26T00:03:37;12.70;99.90
47540;DHT22;33280;52.152;21.052;2022-10-26T00:06:06;12.80;99.90
47540;DHT22;33280;52.152;21.052;2022-10-26T00:08:34;12.60;99.90
47540;DHT22;33280;52.152;21.052;2022-10-26T00:11:01;12.70;99.90
47540;DHT22;33280;52.152;21.052;2022-10-26T00:13:28;12.70;99.90
47540;DHT22;33280;52.152;21.052;2022-10-26T00:15:55;12.80;99.90
47540;DHT22;33280;52.152;21.052;2022-10-26T00:18:23;12.80;99.90
47540;DHT22;33280;52.152;21.052;2022-10-26T00:20:50;12.80;99.90
47540;DHT22;33280;52.152;21.052;2022-10-26T00:23:16;12.80;99.90
47540;DHT22;33280;52.152;21.052;2022-10-26T00:25:44;12.80;99.90
47540;DHT22;33280;52.152;21.052;2022-10-26T00:28:11;12.70;99.90
47540;DHT22;33280;52.152;21.052;2022-10-26T00:30:38;12.80;99.90
47540;DHT22;33280;52.152;21.052;2022-10-26T00:33:05;12.80;99.90
47540;DHT22;33280;52.152;21.052;2022-10-26T00:35:35;12.70;99.90
47540;DHT22;33280;52.152;21.052;2022-10-26T00:38:11;12.80;99.90
47540;DHT22;33280;52.152;21.052;2022-10-26T00:40:38;12.90;99.90
47540;DHT22;33280;52.152;21.052;2022-10-26T00:45:56;12.90;99.90
47540;DHT22;33280;52.152;21.052;2022-10-26T00:48:26;13.00;99.90
47540;DHT22;33280;52.152;21.052;2022-10-26T00:50:56;12.90;99.90
47540;DHT22;33280;52.152;21.052;2022-10-26T00:53:24;13.00;99.90
47540;DHT22;33280;52.152;21.052;2022-10-26T00:55:53;13.00;99.90
47540;DHT22;33280;52.152;21.052;2022-10-26T00:58:21;13.00;99.90
47540;DHT22;33280;52.152;21.052;2022-10-26T01:00:49;13.00;99.90
47540;DHT22;33280;52.152;21.052;2022-10-26T01:03:17;13.00;99.90
47540;DHT22;33280;52.152;21.052;2022-10-26T01:05:45;12.80;99.90
47540;DHT22;33280;52.152;21.052;2022-10-26T01:08:15;12.80;99.90
47540;DHT22;33280;52.152;21.052;2022-10-26T01:10:42;12.90;99.90
47540;DHT22;33280;52.152;21.052;2022-10-26T01:13:10;12.80;99.90
47540;DHT22;33280;52.152;21.052;2022-10-26T01:15:55;12.90;99.90
47540;DHT22;33280;52.152;21.052;2022-10-26T01:27:03;12.90;99.90
47540;DHT22;33280;52.152;21.052;2022-10-26T01:32:12;12.90;99.90
47540;DHT22;33280;52.152;21.052;2022-10-26T01:34:57;12.90;99.90
47540;DHT22;33280;52.152;21.052;2022-10-26T01:37:31;12.90;99.90
47540;DHT22;33280;52.152;21.052;2022-10-26T01:40:15;12.90;99.90
47540;DHT22;33280;52.152;21.052;2022-10-26T01:42:48;12.80;99.90
47540;DHT22;33280;52.152;21.052;2022-10-26T01:45:17;12.80;99.90
47540;DHT22;33280;52.152;21.052;2022-10-26T01:47:46;12.90;99.90
47540;DHT22;33280;52.152;21.052;2022-10-26T01:50:14;12.80;99.90
47540;DHT22;33280;52.152;21.052;2022-10-26T01:52:42;12.80;99.90
47540;DHT22;33280;52.152;21.052;2022-10-26T01:55:39;12.90;99.90
47540;DHT22;33280;52.152;21.052;2022-10-26T02:01:14;12.90;99.90
47540;DHT22;33280;52.152;21.052;2022-10-26T02:04:10;12.90;99.90
47540;DHT22;33280;52.152;21.052;2022-10-26T02:07:00;12.90;99.90
47540;DHT22;33280;52.152;21.052;2022-10-26T02:12:44;12.90;99.90
47540;DHT22;33280;52.152;21.052;2022-10-26T02:15:23;12.90;99.90
47540;DHT22;33280;52.152;21.052;2022-10-26T02:18:00;12.90;99.90
47540;DHT22;33280;52.152;21.052;2022-10-26T02:20:45;12.80;99.90
47540;DHT22;33280;52.152;21.052;2022-10-26T02:23:12;12.70;99.90
47540;DHT22;33280;52.152;21.052;2022-10-26T02:25:47;12.70;99.90
47540;DHT22;33280;52.152;21.052;2022-10-26T02:28:18;12.70;99.90
47540;DHT22;33280;52.152;21.052;2022-10-26T02:30:48;12.60;99.90
47540;DHT22;33280;52.152;21.052;2022-10-26T02:33:16;12.60;99.90
47540;DHT22;33280;52.152;21.052;2022-10-26T02:35:49;12.60;99.90
47540;DHT22;33280;52.152;21.052;2022-10-26T02:38:17;12.60;99.90
47540;DHT22;33280;52.152;21.052;2022-10-26T02:40:46;12.60;99.90
47540;DHT22;33280;52.152;21.052;2022-10-26T02:43:16;12.50;99.90
47540;DHT22;33280;52.152;21.052;2022-10-26T02:45:58;12.60;99.90
47540;DHT22;33280;52.152;21.052;2022-10-26T02:48:26;12.60;99.90
47540;DHT22;33280;52.152;21.052;2022-10-26T02:51:10;12.40;99.90
47540;DHT22;33280;52.152;21.052;2022-10-26T02:56:27;12.50;99.90
47540;DHT22;33280;52.152;21.052;2022-10-26T02:58:58;12.40;99.90
47540;DHT22;33280;52.152;21.052;2022-10-26T03:01:27;12.40;99.90
47540;DHT22;33280;52.152;21.052;2022-10-26T03:03:58;12.50;99.90
47540;DHT22;33280;52.152;21.052;2022-10-26T03:06:26;12.50;99.90
47540;DHT22;33280;52.152;21.052;2022-10-26T03:08:53;12.50;99.90
47540;DHT22;33280;52.152;21.052;2022-10-26T03:11:20;12.50;99.90
47540;DHT22;33280;52.152;21.052;2022-10-26T03:13:47;12.50;99.90
47540;DHT22;33280;52.152;21.052;2022-10-26T03:16:14;12.50;99.90
47540;DHT22;33280;52.152;21.052;2022-10-26T03:18:41;12.50;99.90
47540;DHT22;33280;52.152;21.052;2022-10-26T03:21:08;12.50;99.90
47540;DHT22;33280;52.152;21.052;2022-10-26T03:23:35;12.50;99.90
47540;DHT22;33280;52.152;21.052;2022-10-26T03:26:02;12.40;99.90
47540;DHT22;33280;52.152;21.052;2022-10-26T03:28:29;12.50;99.90
47540;DHT22;33280;52.152;21.052;2022-10-26T03:30:56;12.50;99.90
47540;DHT22;33280;52.152;21.052;2022-10-26T03:33:23;12.50;99.90
47540;DHT22;33280;52.152;21.052;2022-10-26T03:35:54;12.50;99.90
47540;DHT22;33280;52.152;21.052;2022-10-26T03:38:22;12.50;99.90
47540;DHT22;33280;52.152;21.052;2022-10-26T03:40:49;12.40;99.90
47540;DHT22;33280;52.152;21.052;2022-10-26T03:43:16;12.30;99.90
47540;DHT22;33280;52.152;21.052;2022-10-26T03:45:43;12.30;99.90
47540;DHT22;33280;52.152;21.052;2022-10-26T03:48:10;12.40;99.90
47540;DHT22;33280;52.152;21.052;2022-10-26T03:50:37;12.30;99.90
47540;DHT22;33280;52.152;21.052;2022-10-26T03:53:04;12.30;99.90
47540;DHT22;33280;52.152;21.052;2022-10-26T03:55:31;12.20;99.90
47540;DHT22;33280;52.152;21.052;2022-10-26T03:57:58;12.30;99.90
47540;DHT22;33280;52.152;21.052;2022-10-26T04:00:25;12.20;99.90
47540;DHT22;33280;52.152;21.052;2022-10-26T04:02:56;12.20;99.90
47540;DHT22;33280;52.152;21.052;2022-10-26T04:05:24;12.10;99.90
47540;DHT22;33280;52.152;21.052;2022-10-26T04:07:56;12.20;99.90
47540;DHT22;33280;52.152;21.052;2022-10-26T04:10:24;12.30;99.90
47540;DHT22;33280;52.152;21.052;2022-10-26T04:12:51;12.30;99.90
47540;DHT22;33280;52.152;21.052;2022-10-26T04:15:19;12.30;99.90
47540;DHT22;33280;52.152;21.052;2022-10-26T04:17:47;12.40;99.90
47540;DHT22;33280;52.152;21.052;2022-10-26T04:20:14;12.30;99.90
47540;DHT22;33280;52.152;21.052;2022-10-26T04:22:41;12.30;99.90
47540;DHT22;33280;52.152;21.052;2022-10-26T04:25:08;12.30;99.90
47540;DHT22;33280;52.152;21.052;2022-10-26T04:27:36;12.40;99.90
47540;DHT22;33280;52.152;21.052;2022-10-26T04:30:04;12.30;99.90
47540;DHT22;33280;52.152;21.052;2022-10-26T04:32:33;12.30;99.90
47540;DHT22;33280;52.152;21.052;2022-10-26T04:35:00;12.40;99.90
47540;DHT22;33280;52.152;21.052;2022-10-26T04:37:27;12.40;99.90
47540;DHT22;33280;52.152;21.052;2022-10-26T04:39:54;12.40;99.90
47540;DHT22;33280;52.152;21.052;2022-10-26T04:42:21;12.40;99.90
47540;DHT22;33280;52.152;21.052;2022-10-26T04:44:48;12.20;99.90
47540;DHT22;33280;52.152;21.052;2022-10-26T04:47:15;12.30;99.90
47540;DHT22;33280;52.152;21.052;2022-10-26T04:49:42;12.20;99.90
47540;DHT22;33280;52.152;21.052;2022-10-26T04:52:08;12.20;99.90
47540;DHT22;33280;52.152;21.052;2022-10-26T04:54:36;12.20;99.90
47540;DHT22;33280;52.152;21.052;2022-10-26T04:57:03;12.30;99.90
47540;DHT22;33280;52.152;21.052;2022-10-26T04:59:30;12.10;99.90
47540;DHT22;33280;52.152;21.052;2022-10-26T05:01:56;12.10;99.90
47540;DHT22;33280;52.152;21.052;2022-10-26T05:04:24;12.10;99.90
47540;DHT22;33280;52.152;21.052;2022-10-26T05:06:51;12.10;99.90
47540;DHT22;33280;52.152;21.052;2022-10-26T05:09:19;12.10;99.90
47540;DHT22;33280;52.152;21.052;2022-10-26T05:11:46;11.90;99.90
47540;DHT22;33280;52.152;21.052;2022-10-26T05:14:13;11.90;99.90
47540;DHT22;33280;52.152;21.052;2022-10-26T05:16:40;11.90;99.90
47540;DHT22;33280;52.152;21.052;2022-10-26T05:19:08;12.00;99.90
47540;DHT22;33280;52.152;21.052;2022-10-26T05:21:35;12.10;99.90
47540;DHT22;33280;52.152;21.052;2022-10-26T05:24:02;12.00;99.90
47540;DHT22;33280;52.152;21.052;2022-10-26T05:26:33;11.80;99.90
47540;DHT22;33280;52.152;21.052;2022-10-26T05:29:00;11.80;99.90
47540;DHT22;33280;52.152;21.052;2022-10-26T05:31:26;11.80;99.90
47540;DHT22;33280;52.152;21.052;2022-10-26T05:33:53;11.80;99.90
47540;DHT22;33280;52.152;21.052;2022-10-26T05:36:20;11.80;99.90
47540;DHT22;33280;52.152;21.052;2022-10-26T05:38:47;11.70;99.90
47540;DHT22;33280;52.152;21.052;2022-10-26T05:41:14;11.60;99.90
47540;DHT22;33280;52.152;21.052;2022-10-26T05:43:41;11.60;99.90
47540;DHT22;33280;52.152;21.052;2022-10-26T05:46:08;11.70;99.90
47540;DHT22;33280;52.152;21.052;2022-10-26T05:48:35;11.60;99.90
47540;DHT22;33280;52.152;21.052;2022-10-26T05:51:02;11.60;99.90
47540;DHT22;33280;52.152;21.052;2022-10-26T05:53:29;11.60;99.90
47540;DHT22;33280;52.152;21.052;2022-10-26T05:55:56;11.60;99.90
47540;DHT22;33280;52.152;21.052;2022-10-26T05:58:23;11.70;99.90
47540;DHT22;33280;52.152;21.052;2022-10-26T06:06:17;11.70;99.90
47540;DHT22;33280;52.152;21.052;2022-10-26T06:08:44;11.70;99.90
47540;DHT22;33280;52.152;21.052;2022-10-26T06:11:11;11.70;99.90
47540;DHT22;33280;52.152;21.052;2022-10-26T06:13:38;11.70;99.90
47540;DHT22;33280;52.152;21.052;2022-10-26T06:19:02;11.70;99.90
47540;DHT22;33280;52.152;21.052;2022-10-26T06:27:34;11.80;99.90
47540;DHT22;33280;52.152;21.052;2022-10-26T06:30:06;11.80;99.90
47540;DHT22;33280;52.152;21.052;2022-10-26T06:32:36;11.90;99.90
47540;DHT22;33280;52.152;21.052;2022-10-26T06:38:00;11.90;99.90
47540;DHT22;33280;52.152;21.052;2022-10-26T06:40:31;11.90;99.90
47540;DHT22;33280;52.152;21.052;2022-10-26T06:42:59;11.90;99.90
47540;DHT22;33280;52.152;21.052;2022-10-26T06:45:26;11.90;99.90
47540;DHT22;33280;52.152;21.052;2022-10-26T06:48:03;12.00;99.90
47540;DHT22;33280;52.152;21.052;2022-10-26T06:50:37;12.00;99.90
47540;DHT22;33280;52.152;21.052;2022-10-26T06:55:41;12.00;99.90
47540;DHT22;33280;52.152;21.052;2022-10-26T06:58:19;12.00;99.90
47540;DHT22;33280;52.152;21.052;2022-10-26T07:00:49;12.00;99.90
47540;DHT22;33280;52.152;21.052;2022-10-26T07:03:17;12.00;99.90
47540;DHT22;33280;52.152;21.052;2022-10-26T07:05:44;12.00;99.90
47540;DHT22;33280;52.152;21.052;2022-10-26T07:08:12;12.10;99.90
47540;DHT22;33280;52.152;21.052;2022-10-26T07:10:39;12.20;99.90
47540;DHT22;33280;52.152;21.052;2022-10-26T07:13:09;12.20;99.90
47540;DHT22;33280;52.152;21.052;2022-10-26T07:15:37;12.20;99.90
47540;DHT22;33280;52.152;21.052;2022-10-26T07:18:06;12.20;99.90
47540;DHT22;33280;52.152;21.052;2022-10-26T07:20:38;12.10;99.90
47540;DHT22;33280;52.152;21.052;2022-10-26T07:23:06;12.20;99.90
47540;DHT22;33280;52.152;21.052;2022-10-26T07:25:34;12.20;99.90
47540;DHT22;33280;52.152;21.052;2022-10-26T07:28:05;12.20;99.90
47540;DHT22;33280;52.152;21.052;2022-10-26T07:30:32;12.20;99.90
47540;DHT22;33280;52.152;21.052;2022-10-26T07:33:11;12.30;99.90
47540;DHT22;33280;52.152;21.052;2022-10-26T07:35:39;12.40;99.90
47540;DHT22;33280;52.152;21.052;2022-10-26T07:38:06;12.40;99.90
47540;DHT22;33280;52.152;21.052;2022-10-26T07:40:33;12.40;99.90
47540;DHT22;33280;52.152;21.052;2022-10-26T07:43:01;12.50;99.90
47540;DHT22;33280;52.152;21.052;2022-10-26T07:45:29;12.50;99.90
47540;DHT22;33280;52.152;21.052;2022-10-26T07:47:56;12.40;99.90
47540;DHT22;33280;52.152;21.052;2022-10-26T07:50:23;12.40;99.90
47540;DHT22;33280;52.152;21.052;2022-10-26T07:52:50;12.40;99.90
47540;DHT22;33280;52.152;21.052;2022-10-26T07:55:18;12.50;99.90
47540;DHT22;33280;52.152;21.052;2022-10-26T07:57:45;12.50;99.90
47540;DHT22;33280;52.152;21.052;2022-10-26T08:00:20;12.40;99.90
47540;DHT22;33280;52.152;21.052;2022-10-26T08:02:47;12.30;99.90
47540;DHT22;33280;52.152;21.052;2022-10-26T08:05:14;12.30;99.90
47540;DHT22;33280;52.152;21.052;2022-10-26T08:07:42;12.20;99.90
47540;DHT22;33280;52.152;21.052;2022-10-26T08:10:10;12.20;99.90
47540;DHT22;33280;52.152;21.052;2022-10-26T08:12:38;12.30;99.90
47540;DHT22;33280;52.152;21.052;2022-10-26T08:15:05;12.20;99.90
47540;DHT22;33280;52.152;21.052;2022-10-26T08:17:33;12.10;99.90
47540;DHT22;33280;52.152;21.052;2022-10-26T08:20:00;12.10;99.90
47540;DHT22;33280;52.152;21.052;2022-10-26T08:22:30;12.20;99.90
47540;DHT22;33280;52.152;21.052;2022-10-26T08:24:57;12.30;99.90
47540;DHT22;33280;52.152;21.052;2022-10-26T08:27:24;12.30;99.90
47540;DHT22;33280;52.152;21.052;2022-10-26T08:29:51;12.30;99.90
47540;DHT22;33280;52.152;21.052;2022-10-26T08:32:18;12.40;99.90
47540;DHT22;33280;52.152;21.052;2022-10-26T08:34:45;12.40;99.90
47540;DHT22;33280;52.152;21.052;2022-10-26T08:37:12;12.50;99.90
47540;DHT22;33280;52.152;21.052;2022-10-26T08:39:39;12.50;99.90
47540;DHT22;33280;52.152;21.052;2022-10-26T08:42:18;12.50;99.90
47540;DHT22;33280;52.152;21.052;2022-10-26T08:44:50;12.50;99.90
47540;DHT22;33280;52.152;21.052;2022-10-26T08:47:43;12.50;99.90
47540;DHT22;33280;52.152;21.052;2022-10-26T08:50:24;12.70;99.90
47540;DHT22;33280;52.152;21.052;2022-10-26T08:53:25;12.60;99.90
47540;DHT22;33280;52.152;21.052;2022-10-26T08:58:40;12.50;99.90
47540;DHT22;33280;52.152;21.052;2022-10-26T09:01:09;12.50;99.90
47540;DHT22;33280;52.152;21.052;2022-10-26T09:03:36;12.60;99.90
47540;DHT22;33280;52.152;21.052;2022-10-26T09:19:36;13.10;99.90
47540;DHT22;33280;52.152;21.052;2022-10-26T09:22:21;13.20;99.90
47540;DHT22;33280;52.152;21.052;2022-10-26T09:24:54;13.30;99.90
47540;DHT22;33280;52.152;21.052;2022-10-26T09:27:49;13.30;99.90
47540;DHT22;33280;52.152;21.052;2022-10-26T09:30:20;13.40;99.90
47540;DHT22;33280;52.152;21.052;2022-10-26T09:32:49;13.40;99.90
47540;DHT22;33280;52.152;21.052;2022-10-26T09:41:30;13.40;99.90
47540;DHT22;33280;52.152;21.052;2022-10-26T09:46:48;13.10;99.90
47540;DHT22;33280;52.152;21.052;2022-10-26T09:49:20;13.20;99.90
47540;DHT22;33280;52.152;21.052;2022-10-26T09:51:49;13.20;99.90
47540;DHT22;33280;52.152;21.052;2022-10-26T09:54:18;13.30;99.90
47540;DHT22;33280;52.152;21.052;2022-10-26T09:56:51;13.40;99.90
47540;DHT22;33280;52.152;21.052;2022-10-26T09:59:21;13.40;99.90
47540;DHT22;33280;52.152;21.052;2022-10-26T10:01:50;13.70;99.90
47540;DHT22;33280;52.152;21.052;2022-10-26T10:04:20;13.70;99.90
47540;DHT22;33280;52.152;21.052;2022-10-26T10:09:27;14.00;99.90
47540;DHT22;33280;52.152;21.052;2022-10-26T10:11:56;14.00;99.90
47540;DHT22;33280;52.152;21.052;2022-10-26T10:14:38;14.00;99.90
47540;DHT22;33280;52.152;21.052;2022-10-26T10:17:18;14.00;99.90
47540;DHT22;33280;52.152;21.052;2022-10-26T10:19:46;14.00;99.90
47540;DHT22;33280;52.152;21.052;2022-10-26T10:24:56;13.90;99.90
47540;DHT22;33280;52.152;21.052;2022-10-26T10:27:24;14.00;99.90
47540;DHT22;33280;52.152;21.052;2022-10-26T10:29:57;13.90;99.90
47540;DHT22;33280;52.152;21.052;2022-10-26T10:32:30;13.90;99.90
47540;DHT22;33280;52.152;21.052;2022-10-26T10:35:27;14.00;99.90
47540;DHT22;33280;52.152;21.052;2022-10-26T10:37:55;13.90;99.90
47540;DHT22;33280;52.152;21.052;2022-10-26T10:40:27;14.00;99.90
47540;DHT22;33280;52.152;21.052;2022-10-26T10:43:11;14.10;99.90
47540;DHT22;33280;52.152;21.052;2022-10-26T10:45:39;14.00;99.90
47540;DHT22;33280;52.152;21.052;2022-10-26T10:48:16;13.90;99.90
47540;DHT22;33280;52.152;21.052;2022-10-26T10:50:54;13.80;99.90
47540;DHT22;33280;52.152;21.052;2022-10-26T10:53:34;13.90;99.90
47540;DHT22;33280;52.152;21.052;2022-10-26T10:56:38;14.00;99.90
47540;DHT22;33280;52.152;21.052;2022-10-26T10:59:27;14.00;99.90
47540;DHT22;33280;52.152;21.052;2022-10-26T11:07:31;14.10;99.90
47540;DHT22;33280;52.152;21.052;2022-10-26T11:10:03;14.10;99.90
47540;DHT22;33280;52.152;21.052;2022-10-26T11:12:33;14.00;99.90
47540;DHT22;33280;52.152;21.052;2022-10-26T11:15:12;14.20;99.90
47540;DHT22;33280;52.152;21.052;2022-10-26T11:17:50;14.30;99.90
47540;DHT22;33280;52.152;21.052;2022-10-26T11:20:21;14.40;99.90
47540;DHT22;33280;52.152;21.052;2022-10-26T11:22:57;14.40;99.90
47540;DHT22;33280;52.152;21.052;2022-10-26T11:25:34;14.50;99.90
47540;DHT22;33280;52.152;21.052;2022-10-26T11:28:11;14.60;99.90
47540;DHT22;33280;52.152;21.052;2022-10-26T11:30:48;14.70;99.90
47540;DHT22;33280;52.152;21.052;2022-10-26T11:33:41;14.70;99.90
47540;DHT22;33280;52.152;21.052;2022-10-26T11:36:16;14.80;99.90
47540;DHT22;33280;52.152;21.052;2022-10-26T11:41:39;14.80;99.90
47540;DHT22;33280;52.152;21.052;2022-10-26T11:44:12;14.90;99.90
47540;DHT22;33280;52.152;21.052;2022-10-26T11:46:46;15.10;99.90
47540;DHT22;33280;52.152;21.052;2022-10-26T11:49:40;15.50;99.90
47540;DHT22;33280;52.152;21.052;2022-10-26T11:55:07;15.60;99.90
47540;DHT22;33280;52.152;21.052;2022-10-26T11:57:37;15.60;99.90
47540;DHT22;33280;52.152;21.052;2022-10-26T12:00:08;15.90;99.90
47540;DHT22;33280;52.152;21.052;2022-10-26T12:02:41;16.30;99.90
47540;DHT22;33280;52.152;21.052;2022-10-26T12:05:22;16.60;99.90
47540;DHT22;33280;52.152;21.052;2022-10-26T12:07:53;16.60;99.90
47540;DHT22;33280;52.152;21.052;2022-10-26T12:10:32;16.60;99.90
47540;DHT22;33280;52.152;21.052;2022-10-26T12:15:53;16.30;99.90
47540;DHT22;33280;52.152;21.052;2022-10-26T12:18:36;16.20;99.90
47540;DHT22;33280;52.152;21.052;2022-10-26T12:21:27;16.10;99.90
47540;DHT22;33280;52.152;21.052;2022-10-26T12:24:00;15.40;99.90
47540;DHT22;33280;52.152;21.052;2022-10-26T12:34:03;15.30;99.90
47540;DHT22;33280;52.152;21.052;2022-10-26T12:39:37;15.60;99.90
47540;DHT22;33280;52.152;21.052;2022-10-26T12:44:39;15.70;99.90
47540;DHT22;33280;52.152;21.052;2022-10-26T13:00:23;15.50;99.90
47540;DHT22;33280;52.152;21.052;2022-10-26T13:03:05;15.40;99.90
47540;DHT22;33280;52.152;21.052;2022-10-26T13:08:16;15.30;99.90
47540;DHT22;33280;52.152;21.052;2022-10-26T13:11:02;15.20;99.90
47540;DHT22;33280;52.152;21.052;2022-10-26T13:13:31;15.20;99.90
47540;DHT22;33280;52.152;21.052;2022-10-26T13:16:00;15.10;99.90
47540;DHT22;33280;52.152;21.052;2022-10-26T13:18:28;15.10;99.90
47540;DHT22;33280;52.152;21.052;2022-10-26T13:21:07;15.10;99.90
47540;DHT22;33280;52.152;21.052;2022-10-26T13:23:42;15.10;99.90
47540;DHT22;33280;52.152;21.052;2022-10-26T13:26:16;15.20;99.90
47540;DHT22;33280;52.152;21.052;2022-10-26T13:36:43;15.40;99.90
47540;DHT22;33280;52.152;21.052;2022-10-26T13:39:17;15.40;99.90
47540;DHT22;33280;52.152;21.052;2022-10-26T13:41:49;15.10;99.90
47540;DHT22;33280;52.152;21.052;2022-10-26T13:49:51;15.20;99.90
47540;DHT22;33280;52.152;21.052;2022-10-26T13:52:27;15.10;99.90
47540;DHT22;33280;52.152;21.052;2022-10-26T13:54:59;15.00;99.90
47540;DHT22;33280;52.152;21.052;2022-10-26T13:57:33;14.70;99.90
47540;DHT22;33280;52.152;21.052;2022-10-26T14:00:19;14.70;99.90
47540;DHT22;33280;52.152;21.052;2022-10-26T14:02:47;14.80;99.90
47540;DHT22;33280;52.152;21.052;2022-10-26T14:05:18;14.90;99.90
47540;DHT22;33280;52.152;21.052;2022-10-26T14:07:53;14.80;99.90
47540;DHT22;33280;52.152;21.052;2022-10-26T14:12:54;14.60;99.90
47540;DHT22;33280;52.152;21.052;2022-10-26T14:15:29;14.40;99.90
47540;DHT22;33280;52.152;21.052;2022-10-26T14:17:59;14.50;99.90
47540;DHT22;33280;52.152;21.052;2022-10-26T14:20:28;14.50;99.90
47540;DHT22;33280;52.152;21.052;2022-10-26T14:22:55;14.60;99.90
47540;DHT22;33280;52.152;21.052;2022-10-26T14:25:27;14.70;99.90
47540;DHT22;33280;52.152;21.052;2022-10-26T14:28:22;14.70;99.90
47540;DHT22;33280;52.152;21.052;2022-10-26T14:30:50;14.50;99.90
47540;DHT22;33280;52.152;21.052;2022-10-26T14:33:19;14.30;99.90
47540;DHT22;33280;52.152;21.052;2022-10-26T14:35:46;14.20;99.90
47540;DHT22;33280;52.152;21.052;2022-10-26T14:38:25;14.10;99.90
47540;DHT22;33280;52.152;21.052;2022-10-26T14:40:55;14.00;99.90
47540;DHT22;33280;52.152;21.052;2022-10-26T14:43:24;14.00;99.90
47540;DHT22;33280;52.152;21.052;2022-10-26T14:45:52;13.90;99.90
47540;DHT22;33280;52.152;21.052;2022-10-26T14:48:29;14.00;99.90
47540;DHT22;33280;52.152;21.052;2022-10-26T14:51:15;14.00;99.90
47540;DHT22;33280;52.152;21.052;2022-10-26T14:53:48;14.10;99.90
47540;DHT22;33280;52.152;21.052;2022-10-26T14:59:32;13.80;99.90
47540;DHT22;33280;52.152;21.052;2022-10-26T15:04:38;13.80;99.90
47540;DHT22;33280;52.152;21.052;2022-10-26T15:09:42;13.70;99.90
47540;DHT22;33280;52.152;21.052;2022-10-26T15:12:21;13.60;99.90
47540;DHT22;33280;52.152;21.052;2022-10-26T15:14:49;13.50;99.90
47540;DHT22;33280;52.152;21.052;2022-10-26T15:17:32;13.40;99.90
47540;DHT22;33280;52.152;21.052;2022-10-26T15:20:04;13.40;99.90
47540;DHT22;33280;52.152;21.052;2022-10-26T15:22:32;13.20;99.90
47540;DHT22;33280;52.152;21.052;2022-10-26T15:25:03;13.10;99.90
47540;DHT22;33280;52.152;21.052;2022-10-26T15:27:31;13.10;99.90
47540;DHT22;33280;52.152;21.052;2022-10-26T15:30:15;13.00;99.90
47540;DHT22;33280;52.152;21.052;2022-10-26T15:32:42;12.90;99.90
47540;DHT22;33280;52.152;21.052;2022-10-26T15:37:46;12.80;99.90
47540;DHT22;33280;52.152;21.052;2022-10-26T15:40:15;12.70;99.90
47540;DHT22;33280;52.152;21.052;2022-10-26T15:42:42;12.60;99.90
47540;DHT22;33280;52.152;21.052;2022-10-26T15:45:26;12.60;99.90
47540;DHT22;33280;52.152;21.052;2022-10-26T15:47:54;12.50;99.90
47540;DHT22;33280;52.152;21.052;2022-10-26T15:50:24;12.50;99.90
47540;DHT22;33280;52.152;21.052;2022-10-26T15:52:58;12.40;99.90
47540;DHT22;33280;52.152;21.052;2022-10-26T15:55:26;12.30;99.90
47540;DHT22;33280;52.152;21.052;2022-10-26T15:57:56;12.30;99.90
47540;DHT22;33280;52.152;21.052;2022-10-26T16:00:23;12.20;99.90
47540;DHT22;33280;52.152;21.052;2022-10-26T16:02:50;12.20;99.90
47540;DHT22;33280;52.152;21.052;2022-10-26T16:05:17;12.20;99.90
47540;DHT22;33280;52.152;21.052;2022-10-26T16:07:45;12.10;99.90
47540;DHT22;33280;52.152;21.052;2022-10-26T16:10:22;12.10;99.90
47540;DHT22;33280;52.152;21.052;2022-10-26T16:12:51;12.00;99.90
47540;DHT22;33280;52.152;21.052;2022-10-26T16:15:20;11.90;99.90
47540;DHT22;33280;52.152;21.052;2022-10-26T16:17:48;11.90;99.90
47540;DHT22;33280;52.152;21.052;2022-10-26T16:20:19;11.80;99.90
47540;DHT22;33280;52.152;21.052;2022-10-26T16:22:49;11.80;99.90
47540;DHT22;33280;52.152;21.052;2022-10-26T16:25:20;11.80;99.90
47540;DHT22;33280;52.152;21.052;2022-10-26T16:27:47;11.80;99.90
47540;DHT22;33280;52.152;21.052;2022-10-26T16:30:18;11.70;99.90
47540;DHT22;33280;52.152;21.052;2022-10-26T16:32:46;11.60;99.90
47540;DHT22;33280;52.152;21.052;2022-10-26T16:35:14;11.70;99.90
47540;DHT22;33280;52.152;21.052;2022-10-26T16:37:41;11.60;99.90
47540;DHT22;33280;52.152;21.052;2022-10-26T16:40:09;11.60;99.90
47540;DHT22;33280;52.152;21.052;2022-10-26T16:42:36;11.60;99.90
47540;DHT22;33280;52.152;21.052;2022-10-26T16:45:03;11.60;99.90
47540;DHT22;33280;52.152;21.052;2022-10-26T16:47:32;11.60;99.90
47540;DHT22;33280;52.152;21.052;2022-10-26T16:50:03;11.50;99.90
47540;DHT22;33280;52.152;21.052;2022-10-26T16:52:32;11.50;99.90
47540;DHT22;33280;52.152;21.052;2022-10-26T16:54:59;11.40;99.90
47540;DHT22;33280;52.152;21.052;2022-10-26T16:57:26;11.40;99.90
47540;DHT22;33280;52.152;21.052;2022-10-26T16:59:53;11.40;99.90
47540;DHT22;33280;52.152;21.052;2022-10-26T17:02:20;11.30;99.90
47540;DHT22;33280;52.152;21.052;2022-10-26T17:04:47;11.30;99.90
47540;DHT22;33280;52.152;21.052;2022-10-26T17:07:14;11.30;99.90
47540;DHT22;33280;52.152;21.052;2022-10-26T17:09:41;11.20;99.90
47540;DHT22;33280;52.152;21.052;2022-10-26T17:12:08;11.20;99.90
47540;DHT22;33280;52.152;21.052;2022-10-26T17:14:36;11.20;99.90
47540;DHT22;33280;52.152;21.052;2022-10-26T17:17:03;11.10;99.90
47540;DHT22;33280;52.152;21.052;2022-10-26T17:19:30;11.00;99.90
47540;DHT22;33280;52.152;21.052;2022-10-26T17:21:57;11.00;99.90
47540;DHT22;33280;52.152;21.052;2022-10-26T17:24:24;11.00;99.90
47540;DHT22;33280;52.152;21.052;2022-10-26T17:26:51;10.90;99.90
47540;DHT22;33280;52.152;21.052;2022-10-26T17:29:18;10.90;99.90
47540;DHT22;33280;52.152;21.052;2022-10-26T17:31:45;10.80;99.90
47540;DHT22;33280;52.152;21.052;2022-10-26T17:34:11;10.80;99.90
47540;DHT22;33280;52.152;21.052;2022-10-26T17:36:38;10.80;99.90
47540;DHT22;33280;52.152;21.052;2022-10-26T17:39:05;10.80;99.90
47540;DHT22;33280;52.152;21.052;2022-10-26T17:41:32;10.80;99.90
47540;DHT22;33280;52.152;21.052;2022-10-26T17:43:59;10.80;99.90
47540;DHT22;33280;52.152;21.052;2022-10-26T17:46:26;10.80;99.90
47540;DHT22;33280;52.152;21.052;2022-10-26T17:48:59;10.80;99.90
47540;DHT22;33280;52.152;21.052;2022-10-26T17:51:27;10.80;99.90
47540;DHT22;33280;52.152;21.052;2022-10-26T17:53:55;10.80;99.90
47540;DHT22;33280;52.152;21.052;2022-10-26T17:56:28;10.70;99.90
47540;DHT22;33280;52.152;21.052;2022-10-26T17:59:03;10.70;99.90
47540;DHT22;33280;52.152;21.052;2022-10-26T18:01:31;10.70;99.90